This is the latest recevied weather packets stored in our database for station/object IZ8QAD-11. If no packets are shown the sender has not sent any weather packets the latest 10 day(s).
| Time | Temp. | Humidity | Pressure | Rain* | Wind** | Luminosity | Snow |
|---|---|---|---|---|---|---|---|
| 1777884203 | 25.56° C | 42% | 973.1 hPa | - | - | - | - |
| 1777880603 | 25.56° C | 47% | 972.9 hPa | - | - | - | - |
| 1777877002 | 22.22° C | 55% | 972.8 hPa | - | - | - | - |
| 1777873401 | 16.11° C | 61% | 972.7 hPa | - | - | - | - |
| 1777869800 | 10° C | 62% | 972.2 hPa | - | - | - | - |
| 1777866199 | 10° C | 63% | 972 hPa | - | - | - | - |
| 1777862599 | 10.56° C | 60% | 972.1 hPa | - | - | - | - |
| 1777858998 | 10° C | 59% | 972.6 hPa | - | - | - | - |
| 1777855398 | 11.11° C | 59% | 972.1 hPa | - | - | - | - |
| 1777851796 | 11.11° C | 59% | 972.2 hPa | - | - | - | - |
| 1777848195 | 11.11° C | 57% | 972.7 hPa | - | - | - | - |
| 1777844595 | 11.67° C | 56% | 972.5 hPa | - | - | - | - |
| 1777840994 | 12.78° C | 54% | 972.3 hPa | - | - | - | - |
| 1777833792 | 15° C | 49% | 971.6 hPa | - | - | - | - |
| 1777830191 | 17.22° C | 48% | 971.1 hPa | - | - | - | - |
| 1777826591 | 18.33° C | 47% | 971.1 hPa | - | - | - | - |
| 1777822990 | 20.56° C | 41% | 971.1 hPa | - | - | - | - |
| 1777819398 | 24.44° C | 34% | 971.1 hPa | - | - | - | - |
| 1777815798 | 28.33° C | 30% | 971.2 hPa | - | - | - | - |
| 1777812187 | 30° C | 28% | 971.4 hPa | - | - | - | - |
| 1777808586 | 35.56° C | 27% | 971.8 hPa | - | - | - | - |
| 1777801385 | 32.78° C | 34% | 972.7 hPa | - | - | - | - |
| 1777797784 | 30° C | 38% | 973.1 hPa | - | - | - | - |
| 1777794183 | 26.67° C | 44% | 973.3 hPa | - | - | - | - |
| 1777790582 | 20.56° C | 51% | 973.6 hPa | - | - | - | - |
* Rain since midnight (hover to see other rain measurements)
** Current wind speed in m/s (hover to see current wind gust speed)